createdAt,value
2018-11-22T08:59:53.080Z,979.339
2018-11-22T09:00:09.812Z,979.346
2018-11-22T09:00:26.549Z,979.368
2018-11-22T09:00:43.284Z,979.422
2018-11-22T09:01:00.029Z,979.425
2018-11-22T09:01:16.787Z,979.442
2018-11-22T09:01:33.483Z,979.398
2018-11-22T09:01:50.262Z,979.421
2018-11-22T09:02:06.960Z,979.439
2018-11-22T09:02:23.649Z,979.455
2018-11-22T09:02:45.793Z,979.419
2018-11-22T09:03:02.483Z,979.451
2018-11-22T09:03:19.173Z,979.398
2018-11-22T09:03:35.860Z,979.484
2018-11-22T09:03:52.525Z,979.493
2018-11-22T09:04:09.198Z,979.443
2018-11-22T09:04:41.961Z,979.489
2018-11-22T09:04:58.653Z,979.488
2018-11-22T09:05:15.347Z,979.475
2018-11-22T09:05:32.015Z,979.529
2018-11-22T09:05:48.670Z,979.548
2018-11-22T09:06:05.331Z,979.488
2018-11-22T09:06:22.037Z,979.513
2018-11-22T09:06:38.698Z,979.568
2018-11-22T09:06:55.391Z,979.548
2018-11-22T09:07:12.131Z,979.525
2018-11-22T09:07:28.823Z,979.532
2018-11-22T09:07:45.522Z,979.478
2018-11-22T09:08:02.326Z,979.521
2018-11-22T09:08:19.013Z,979.46
2018-11-22T09:08:35.708Z,979.522
2018-11-22T09:08:52.399Z,979.48
2018-11-22T09:09:09.043Z,979.476
2018-11-22T09:09:25.707Z,979.486
2018-11-22T09:09:42.377Z,979.461
2018-11-22T09:10:02.970Z,979.44
2018-11-22T09:10:19.651Z,979.542
2018-11-22T09:10:36.345Z,979.524
2018-11-22T09:10:53.002Z,979.458
2018-11-22T09:11:09.673Z,979.559
2018-11-22T09:11:26.313Z,979.439
2018-11-22T09:11:42.982Z,979.463
2018-11-22T09:11:59.638Z,979.455
2018-11-22T09:12:16.281Z,979.496
2018-11-22T09:12:32.936Z,979.48
2018-11-22T09:12:49.602Z,979.526
2018-11-22T09:13:06.283Z,979.473
2018-11-22T09:13:22.965Z,979.495
2018-11-22T09:13:39.663Z,979.533
2018-11-22T09:13:56.329Z,979.548
2018-11-22T09:14:12.966Z,979.58
2018-11-22T09:14:29.633Z,979.505
2018-11-22T09:14:46.296Z,979.559
2018-11-22T09:15:03.044Z,979.579
2018-11-22T09:15:19.724Z,979.614
2018-11-22T09:15:36.427Z,979.566
2018-11-22T09:15:53.096Z,979.556
2018-11-22T09:16:09.743Z,979.587
2018-11-22T09:16:26.433Z,979.553
2018-11-22T09:16:43.088Z,979.591
2018-11-22T09:16:59.795Z,979.552
2018-11-22T09:17:16.592Z,979.581
2018-11-22T09:17:33.275Z,979.548
2018-11-22T09:17:49.944Z,979.537
2018-11-22T09:18:06.597Z,979.558
2018-11-22T09:18:23.330Z,979.571
2018-11-22T09:18:39.988Z,979.557
2018-11-22T09:18:56.629Z,979.571
2018-11-22T09:19:13.272Z,979.538
2018-11-22T09:19:29.965Z,979.555
2018-11-22T09:19:46.606Z,979.553
2018-11-22T09:20:03.285Z,979.539
2018-11-22T09:20:20.006Z,979.609
2018-11-22T09:20:36.659Z,979.598
2018-11-22T09:20:53.322Z,979.557
2018-11-22T09:21:09.979Z,979.576
2018-11-22T09:21:26.638Z,979.556
2018-11-22T09:21:43.301Z,979.55
2018-11-22T09:21:59.976Z,979.535
2018-11-22T09:22:16.632Z,979.535
2018-11-22T09:22:33.313Z,979.534
2018-11-22T09:22:50.032Z,979.511
2018-11-22T09:23:06.670Z,979.52
2018-11-22T09:23:23.318Z,979.548
2018-11-22T09:23:39.978Z,979.549
2018-11-22T09:23:56.667Z,979.555
2018-11-22T09:24:13.344Z,979.532
2018-11-22T09:24:30.021Z,979.563
2018-11-22T09:24:46.660Z,979.553
2018-11-22T09:25:03.292Z,979.55
2018-11-22T09:25:19.953Z,979.557
2018-11-22T09:25:36.642Z,979.531
2018-11-22T09:25:53.363Z,979.502
2018-11-22T09:26:10.086Z,979.535
2018-11-22T09:26:26.795Z,979.575
2018-11-22T09:26:43.481Z,979.54
2018-11-22T09:27:00.137Z,979.474
2018-11-22T09:27:16.819Z,979.453
2018-11-22T09:27:33.512Z,979.478
2018-11-22T09:27:50.162Z,979.51
2018-11-22T09:28:06.860Z,979.482
2018-11-22T09:28:23.504Z,979.473
2018-11-22T09:28:40.185Z,979.465
2018-11-22T09:28:56.874Z,979.427
2018-11-22T09:29:13.552Z,979.454
2018-11-22T09:29:30.210Z,979.422
2018-11-22T09:29:46.874Z,979.432
2018-11-22T09:30:03.559Z,979.398
2018-11-22T09:30:20.249Z,979.422
2018-11-22T09:30:36.921Z,979.47
2018-11-22T09:30:53.588Z,979.449
2018-11-22T09:31:10.267Z,979.391
2018-11-22T09:31:26.948Z,979.485
2018-11-22T09:31:43.634Z,979.423
2018-11-22T09:32:00.315Z,979.422
2018-11-22T09:32:16.988Z,979.426
2018-11-22T09:32:33.658Z,979.451
2018-11-22T09:32:50.306Z,979.422
2018-11-22T09:33:06.990Z,979.385
2018-11-22T09:33:23.635Z,979.464
2018-11-22T09:33:40.325Z,979.397
2018-11-22T09:33:56.997Z,979.459
2018-11-22T09:34:13.751Z,979.427
2018-11-22T09:34:30.440Z,979.447
2018-11-22T09:34:47.158Z,979.431
2018-11-22T09:35:03.963Z,979.428
2018-11-22T09:35:21.046Z,979.472
2018-11-22T09:35:38.372Z,979.446
2018-11-22T09:35:55.053Z,979.444
2018-11-22T09:36:11.716Z,979.48
2018-11-22T09:36:28.404Z,979.459
2018-11-22T09:36:45.053Z,979.456
2018-11-22T09:37:01.704Z,979.49
2018-11-22T09:37:18.399Z,979.48
2018-11-22T09:37:35.074Z,979.468
2018-11-22T09:37:51.796Z,979.468
2018-11-22T09:38:08.469Z,979.485
2018-11-22T09:38:25.148Z,979.469
2018-11-22T09:38:41.799Z,979.475
2018-11-22T09:38:58.457Z,979.483
2018-11-22T09:39:15.110Z,979.542
2018-11-22T09:39:31.790Z,979.509
2018-11-22T09:39:48.468Z,979.543
2018-11-22T09:40:05.155Z,979.581
2018-11-22T09:40:21.825Z,979.578
2018-11-22T09:40:38.492Z,979.583
2018-11-22T09:40:55.174Z,979.568
2018-11-22T09:41:11.846Z,979.53
2018-11-22T09:41:28.519Z,979.573
2018-11-22T09:41:45.183Z,979.641
2018-11-22T09:42:01.992Z,979.546
2018-11-22T09:42:19.388Z,979.517
2018-11-22T09:42:36.489Z,979.591
2018-11-22T09:42:53.165Z,979.513
2018-11-22T09:43:09.848Z,979.523
2018-11-22T09:43:26.507Z,979.571
2018-11-22T09:43:43.166Z,979.507
2018-11-22T09:43:59.855Z,979.525
2018-11-22T09:44:16.544Z,979.592
2018-11-22T09:44:33.205Z,979.502
2018-11-22T09:44:49.849Z,979.537
2018-11-22T09:45:06.537Z,979.52
2018-11-22T09:45:23.208Z,979.543
2018-11-22T09:45:39.855Z,979.509
2018-11-22T09:45:56.575Z,979.528
2018-11-22T09:46:13.254Z,979.513
2018-11-22T09:46:29.917Z,979.502
2018-11-22T09:46:46.594Z,979.512
2018-11-22T09:47:03.278Z,979.563
2018-11-22T09:47:19.939Z,979.526
2018-11-22T09:47:36.794Z,979.466
2018-11-22T09:47:53.451Z,979.49
2018-11-22T09:48:10.201Z,979.522
2018-11-22T09:48:26.959Z,979.476
2018-11-22T09:48:44.309Z,979.455
2018-11-22T09:49:01.380Z,979.467
2018-11-22T09:49:18.091Z,979.459
2018-11-22T09:49:34.801Z,979.489
2018-11-22T09:49:51.484Z,979.51
2018-11-22T09:50:08.192Z,979.477
2018-11-22T09:50:24.889Z,979.495
2018-11-22T09:50:41.677Z,979.475
2018-11-22T09:50:58.375Z,979.477
2018-11-22T09:51:15.047Z,979.514
2018-11-22T09:51:31.727Z,979.535
2018-11-22T09:51:48.374Z,979.498
2018-11-22T09:52:05.020Z,979.515
2018-11-22T09:52:21.665Z,979.453
2018-11-22T09:52:38.302Z,979.47
2018-11-22T09:52:54.937Z,979.443
2018-11-22T09:53:11.605Z,979.482
2018-11-22T09:53:28.283Z,979.486
2018-11-22T09:53:44.931Z,979.475
2018-11-22T09:54:01.648Z,979.457
2018-11-22T09:54:18.295Z,979.482
2018-11-22T09:54:34.944Z,979.484
2018-11-22T09:54:51.600Z,979.457
2018-11-22T09:55:08.243Z,979.498
2018-11-22T09:55:24.890Z,979.479
2018-11-22T09:55:41.519Z,979.464
2018-11-22T09:55:58.148Z,979.473
2018-11-22T09:56:14.837Z,979.464
2018-11-22T09:56:31.480Z,979.543
2018-11-22T09:56:48.170Z,979.471
2018-11-22T09:57:04.802Z,979.504
2018-11-22T09:57:21.477Z,979.539
2018-11-22T09:57:38.124Z,979.546
2018-11-22T09:57:54.764Z,979.513
2018-11-22T09:58:11.515Z,979.533
2018-11-22T09:58:28.156Z,979.529
2018-11-22T09:58:44.775Z,979.46
2018-11-22T09:59:01.667Z,979.483
2018-11-22T09:59:19.113Z,979.531
2018-11-22T09:59:36.112Z,979.536
2018-11-22T09:59:53.687Z,979.513
2018-11-22T10:00:10.356Z,979.513
2018-11-22T10:00:27.080Z,979.51
2018-11-22T10:00:43.757Z,979.517
2018-11-22T10:01:00.490Z,979.489
2018-11-22T10:01:17.168Z,979.506
2018-11-22T10:01:33.863Z,979.518
2018-11-22T10:01:50.555Z,979.474
2018-11-22T10:02:07.256Z,979.429
2018-11-22T10:02:24.140Z,979.381
2018-11-22T10:02:40.791Z,979.378
2018-11-22T10:02:57.767Z,979.369
2018-11-22T10:03:15.352Z,979.372
2018-11-22T10:03:32.846Z,979.37
2018-11-22T10:03:49.575Z,979.389
2018-11-22T10:04:06.225Z,979.366
2018-11-22T10:04:22.877Z,979.323
2018-11-22T10:04:39.878Z,979.293
2018-11-22T10:04:57.675Z,979.302
2018-11-22T10:05:17.328Z,979.312
2018-11-22T10:05:35.395Z,979.211
2018-11-22T10:05:52.606Z,979.288
2018-11-22T10:06:09.873Z,979.345
2018-11-22T10:06:26.585Z,979.26
2018-11-22T10:06:43.292Z,979.254
2018-11-22T10:06:59.956Z,979.273
2018-11-22T10:07:16.665Z,979.262
2018-11-22T10:07:33.361Z,979.259
2018-11-22T10:07:50.036Z,979.254
2018-11-22T10:08:06.726Z,979.244
2018-11-22T10:08:23.608Z,979.212
2018-11-22T10:08:40.870Z,979.281
2018-11-22T10:08:58.000Z,979.263
2018-11-22T10:09:15.043Z,979.219
2018-11-22T10:09:32.219Z,979.225
2018-11-22T10:09:48.880Z,979.305
2018-11-22T10:10:05.582Z,979.243
2018-11-22T10:10:22.244Z,979.276
2018-11-22T10:10:38.914Z,979.279
2018-11-22T10:10:55.578Z,979.267
2018-11-22T10:11:12.287Z,979.234
2018-11-22T10:11:28.951Z,979.289
2018-11-22T10:11:45.666Z,979.289
2018-11-22T10:12:02.354Z,979.321
2018-11-22T10:12:19.282Z,979.243
2018-11-22T10:12:36.755Z,979.247
2018-11-22T10:12:53.991Z,979.298
2018-11-22T10:13:10.648Z,979.274
2018-11-22T10:13:27.421Z,979.322
2018-11-22T10:13:44.120Z,979.326
2018-11-22T10:14:00.800Z,979.268
2018-11-22T10:14:17.497Z,979.292
2018-11-22T10:14:34.176Z,979.276
2018-11-22T10:14:50.873Z,979.34
2018-11-22T10:15:07.571Z,979.275
2018-11-22T10:15:24.243Z,979.3
2018-11-22T10:15:40.923Z,979.315
2018-11-22T10:15:57.576Z,979.333
2018-11-22T10:16:14.263Z,979.316
2018-11-22T10:16:30.912Z,979.359
2018-11-22T10:16:47.604Z,979.277
2018-11-22T10:17:04.650Z,979.385
2018-11-22T10:17:21.816Z,979.297
2018-11-22T10:17:38.509Z,979.308
2018-11-22T10:17:55.183Z,979.317
2018-11-22T10:18:11.875Z,979.34
2018-11-22T10:18:28.869Z,979.358
2018-11-22T10:18:46.455Z,979.37
2018-11-22T10:19:03.454Z,979.335
2018-11-22T10:19:20.211Z,979.311
2018-11-22T10:19:36.966Z,979.298
2018-11-22T10:19:53.697Z,979.302
2018-11-22T10:20:10.384Z,979.313
2018-11-22T10:20:27.067Z,979.278
2018-11-22T10:20:43.783Z,979.301
2018-11-22T10:21:00.496Z,979.333
2018-11-22T10:21:17.188Z,979.285
2018-11-22T10:21:33.870Z,979.327
2018-11-22T10:21:50.563Z,979.285
2018-11-22T10:22:07.245Z,979.258
2018-11-22T10:22:24.227Z,979.307
2018-11-22T10:22:41.686Z,979.284
2018-11-22T10:22:58.573Z,979.264
2018-11-22T10:23:15.250Z,979.282
2018-11-22T10:23:31.969Z,979.243
2018-11-22T10:23:49.140Z,979.316
2018-11-22T10:24:06.735Z,979.293
2018-11-22T10:24:24.324Z,979.233
2018-11-22T10:24:41.690Z,979.258
2018-11-22T10:24:58.412Z,979.319
2018-11-22T10:25:15.141Z,979.273
2018-11-22T10:25:31.828Z,979.258
2018-11-22T10:25:48.531Z,979.232
2018-11-22T10:26:05.295Z,979.253
2018-11-22T10:26:22.022Z,979.238
2018-11-22T10:26:38.747Z,979.296
2018-11-22T10:26:55.423Z,979.287
2018-11-22T10:27:12.181Z,979.263
2018-11-22T10:27:28.892Z,979.26
2018-11-22T10:27:45.590Z,979.253
2018-11-22T10:28:02.313Z,979.336
2018-11-22T10:28:19.012Z,979.287
2018-11-22T10:28:35.677Z,979.289
2018-11-22T10:28:52.365Z,979.28
2018-11-22T10:29:09.186Z,979.288
2018-11-22T10:29:26.571Z,979.326
2018-11-22T10:29:43.793Z,979.29
2018-11-22T10:30:00.622Z,979.318
2018-11-22T10:30:17.930Z,979.282
2018-11-22T10:30:35.013Z,979.271
2018-11-22T10:30:51.730Z,979.288
2018-11-22T10:31:08.440Z,979.241
2018-11-22T10:31:25.226Z,979.225
2018-11-22T10:31:42.372Z,979.288
2018-11-22T10:31:59.361Z,979.25
2018-11-22T10:32:16.027Z,979.279
2018-11-22T10:32:32.724Z,979.347
2018-11-22T10:32:49.397Z,979.291
2018-11-22T10:33:06.069Z,979.253
2018-11-22T10:33:22.799Z,979.24
2018-11-22T10:33:39.467Z,979.276
2018-11-22T10:33:56.149Z,979.253
2018-11-22T10:34:12.812Z,979.225
2018-11-22T10:34:29.547Z,979.229
2018-11-22T10:34:46.223Z,979.271
2018-11-22T10:35:03.143Z,979.242
2018-11-22T10:35:20.479Z,979.3
2018-11-22T10:35:37.735Z,979.248
2018-11-22T10:35:54.410Z,979.222
2018-11-22T10:36:11.113Z,979.211
2018-11-22T10:36:27.910Z,979.265
2018-11-22T10:36:44.582Z,979.264
2018-11-22T10:37:01.262Z,979.215
2018-11-22T10:37:17.965Z,979.213
2018-11-22T10:37:34.848Z,979.288
2018-11-22T10:37:52.298Z,979.226
2018-11-22T10:38:09.929Z,979.197
2018-11-22T10:38:27.393Z,979.208
2018-11-22T10:38:44.635Z,979.223
2018-11-22T10:39:01.570Z,979.215
2018-11-22T10:39:34.489Z,979.201
2018-11-22T10:39:51.194Z,979.187
2018-11-22T10:40:07.896Z,979.24
2018-11-22T10:40:24.633Z,979.217
2018-11-22T10:40:41.394Z,979.26
2018-11-22T10:40:58.271Z,979.243
2018-11-22T10:41:15.014Z,979.211
2018-11-22T10:41:31.706Z,979.229
2018-11-22T10:41:48.383Z,979.27
2018-11-22T10:42:05.152Z,979.221
2018-11-22T10:42:22.053Z,979.23
2018-11-22T10:42:39.207Z,979.226
2018-11-22T10:42:56.216Z,979.235
2018-11-22T10:43:12.942Z,979.207
2018-11-22T10:43:29.653Z,979.219
2018-11-22T10:43:46.306Z,979.281
2018-11-22T10:44:03.007Z,979.22
2018-11-22T10:44:19.659Z,979.203
2018-11-22T10:44:36.310Z,979.233
2018-11-22T10:44:52.986Z,979.208
2018-11-22T10:45:09.679Z,979.221
2018-11-22T10:45:26.354Z,979.288
2018-11-22T10:45:43.052Z,979.235
2018-11-22T10:45:59.728Z,979.269
2018-11-22T10:46:16.406Z,979.221
2018-11-22T10:46:33.061Z,979.167
2018-11-22T10:46:49.744Z,979.194
2018-11-22T10:47:06.418Z,979.196
2018-11-22T10:47:23.077Z,979.147
2018-11-22T10:47:39.799Z,979.239
2018-11-22T10:47:56.468Z,979.221
2018-11-22T10:48:13.109Z,979.197
2018-11-22T10:48:29.819Z,979.229
2018-11-22T10:48:46.605Z,979.177
2018-11-22T10:49:03.309Z,979.22
2018-11-22T10:49:20.080Z,979.212
2018-11-22T10:49:36.819Z,979.26
2018-11-22T10:49:53.526Z,979.194
2018-11-22T10:50:10.246Z,979.246
2018-11-22T10:50:26.946Z,979.242
2018-11-22T10:50:43.723Z,979.325
2018-11-22T10:51:00.439Z,979.307
2018-11-22T10:51:17.189Z,979.261
2018-11-22T10:51:33.862Z,979.26
2018-11-22T10:51:50.589Z,979.328
2018-11-22T10:52:07.288Z,979.318
2018-11-22T10:52:23.981Z,979.21
2018-11-22T10:52:40.798Z,979.29
2018-11-22T10:52:57.495Z,979.306
2018-11-22T10:53:14.183Z,979.303
2018-11-22T10:53:30.882Z,979.313
2018-11-22T10:53:47.600Z,979.277
2018-11-22T10:54:04.342Z,979.283
2018-11-22T10:54:21.115Z,979.295
2018-11-22T10:54:37.894Z,979.266
2018-11-22T10:54:54.638Z,979.331
2018-11-22T10:55:11.408Z,979.246
2018-11-22T10:55:28.112Z,979.284
2018-11-22T10:55:44.857Z,979.264
2018-11-22T10:56:01.778Z,979.29
2018-11-22T10:56:18.527Z,979.316
2018-11-22T10:56:35.230Z,979.257
2018-11-22T10:56:51.932Z,979.261
2018-11-22T10:57:08.706Z,979.291
2018-11-22T10:57:25.462Z,979.313
2018-11-22T10:57:42.226Z,979.286
2018-11-22T10:57:58.953Z,979.331
2018-11-22T10:58:15.625Z,979.321
2018-11-22T10:58:32.308Z,979.293
2018-11-22T10:58:48.967Z,979.269
2018-11-22T10:59:05.668Z,979.296
2018-11-22T10:59:22.360Z,979.315
2018-11-22T10:59:39.037Z,979.281
2018-11-22T10:59:56.615Z,979.275
2018-11-22T11:00:13.309Z,979.288
2018-11-22T11:00:29.992Z,979.265
2018-11-22T11:00:46.695Z,979.302
2018-11-22T11:01:03.432Z,979.32
2018-11-22T11:01:20.119Z,979.287
2018-11-22T11:01:36.814Z,979.277
2018-11-22T11:01:53.539Z,979.316
2018-11-22T11:02:10.280Z,979.291
2018-11-22T11:02:27.202Z,979.221
2018-11-22T11:02:43.908Z,979.25
2018-11-22T11:03:00.592Z,979.28
2018-11-22T11:03:17.261Z,979.229
2018-11-22T11:03:33.943Z,979.212
2018-11-22T11:03:50.705Z,979.246
2018-11-22T11:04:07.431Z,979.252
2018-11-22T11:04:24.261Z,979.227
2018-11-22T11:04:40.923Z,979.223
2018-11-22T11:04:57.571Z,979.228
2018-11-22T11:05:14.249Z,979.25
2018-11-22T11:05:30.972Z,979.266
2018-11-22T11:05:47.743Z,979.213
2018-11-22T11:06:04.442Z,979.161
2018-11-22T11:06:21.138Z,979.21
2018-11-22T11:06:37.852Z,979.197
2018-11-22T11:06:54.644Z,979.184
2018-11-22T11:07:11.397Z,979.194
2018-11-22T11:07:28.114Z,979.175
2018-11-22T11:07:44.816Z,979.22
2018-11-22T11:08:01.488Z,979.257
2018-11-22T11:08:18.166Z,979.241
2018-11-22T11:08:34.831Z,979.22
2018-11-22T11:08:51.548Z,979.234
2018-11-22T11:09:08.304Z,979.231
2018-11-22T11:09:24.960Z,979.219
2018-11-22T11:09:41.760Z,979.277
2018-11-22T11:09:58.417Z,979.242
2018-11-22T11:10:15.086Z,979.25
2018-11-22T11:10:31.750Z,979.234
2018-11-22T11:10:48.410Z,979.181
2018-11-22T11:11:05.123Z,979.213
2018-11-22T11:11:21.787Z,979.18
2018-11-22T11:11:38.487Z,979.229
2018-11-22T11:11:55.129Z,979.199
2018-11-22T11:12:11.804Z,979.2
2018-11-22T11:12:28.497Z,979.173
2018-11-22T11:12:45.158Z,979.245
2018-11-22T11:13:01.866Z,979.237
2018-11-22T11:13:18.552Z,979.265
2018-11-22T11:13:35.225Z,979.247
2018-11-22T11:13:51.912Z,979.229
2018-11-22T11:14:08.604Z,979.196
2018-11-22T11:14:25.325Z,979.225
2018-11-22T11:14:42.023Z,979.194
2018-11-22T11:14:58.681Z,979.224
2018-11-22T11:15:15.337Z,979.242
2018-11-22T11:15:32.005Z,979.19
2018-11-22T11:15:48.676Z,979.247
2018-11-22T11:16:05.362Z,979.2
2018-11-22T11:16:22.078Z,979.213
2018-11-22T11:16:38.743Z,979.254
2018-11-22T11:16:55.462Z,979.211
2018-11-22T11:17:12.158Z,979.247
2018-11-22T11:17:28.827Z,979.185
2018-11-22T11:17:45.499Z,979.213
2018-11-22T11:18:02.277Z,979.228
2018-11-22T11:18:18.940Z,979.219
2018-11-22T11:18:35.616Z,979.204
2018-11-22T11:18:52.277Z,979.13
2018-11-22T11:19:09.006Z,979.17
2018-11-22T11:19:25.750Z,979.16
2018-11-22T11:19:42.468Z,979.167
2018-11-22T11:19:59.238Z,979.172
2018-11-22T11:20:15.915Z,979.19
2018-11-22T11:20:32.616Z,979.195
2018-11-22T11:20:49.318Z,979.21
2018-11-22T11:21:24.068Z,979.207
2018-11-22T11:21:40.849Z,979.198
2018-11-22T11:21:57.549Z,979.156
2018-11-22T11:22:14.267Z,979.169
2018-11-22T11:22:31.035Z,979.198
2018-11-22T11:22:47.755Z,979.226
2018-11-22T11:23:04.449Z,979.188
2018-11-22T11:23:21.140Z,979.187
2018-11-22T11:23:37.963Z,979.175
2018-11-22T11:23:54.985Z,979.218
2018-11-22T11:24:11.657Z,979.21
2018-11-22T11:24:30.746Z,979.235
2018-11-22T11:24:49.639Z,979.211
2018-11-22T11:25:06.341Z,979.208
2018-11-22T11:25:23.046Z,979.205
2018-11-22T11:25:39.695Z,979.163
2018-11-22T11:25:56.407Z,979.221
2018-11-22T11:26:13.124Z,979.154
2018-11-22T11:26:29.828Z,979.142
2018-11-22T11:26:46.488Z,979.166
2018-11-22T11:27:03.628Z,979.166
2018-11-22T11:27:20.291Z,979.194
2018-11-22T11:27:37.136Z,979.172
2018-11-22T11:27:53.805Z,979.108
2018-11-22T11:28:10.454Z,979.145
2018-11-22T11:28:27.152Z,979.123
2018-11-22T11:28:43.812Z,979.103
2018-11-22T11:29:00.519Z,979.162
2018-11-22T11:29:17.192Z,979.127
2018-11-22T11:29:33.863Z,979.146
2018-11-22T11:29:50.498Z,979.099
2018-11-22T11:30:07.183Z,979.091
2018-11-22T11:30:23.880Z,979.092
2018-11-22T11:30:40.543Z,979.128
2018-11-22T11:30:57.221Z,979.129
2018-11-22T11:31:13.896Z,979.103
2018-11-22T11:31:30.572Z,979.087
2018-11-22T11:31:47.258Z,979.102
2018-11-22T11:32:03.977Z,979.106
2018-11-22T11:32:20.704Z,979.102
2018-11-22T11:32:37.377Z,979.179
2018-11-22T11:32:54.040Z,979.149
2018-11-22T11:33:10.748Z,979.079
2018-11-22T11:33:27.414Z,979.124
2018-11-22T11:33:44.093Z,979.124
2018-11-22T11:34:00.926Z,979.152
2018-11-22T11:34:17.577Z,979.112
2018-11-22T11:34:34.243Z,979.162
2018-11-22T11:34:50.914Z,979.111
2018-11-22T11:35:07.604Z,979.15
2018-11-22T11:35:24.296Z,979.123
2018-11-22T11:35:40.982Z,979.129
2018-11-22T11:35:57.651Z,979.144
2018-11-22T11:36:18.305Z,979.128
2018-11-22T11:36:34.989Z,979.104
2018-11-22T11:36:51.653Z,979.126
2018-11-22T11:37:08.332Z,979.11
2018-11-22T11:37:25.013Z,979.138
2018-11-22T11:37:41.703Z,979.099
2018-11-22T11:37:58.431Z,979.126
2018-11-22T11:38:15.146Z,979.166
2018-11-22T11:38:31.836Z,979.127
2018-11-22T11:38:48.542Z,979.128
2018-11-22T11:39:05.237Z,979.098
2018-11-22T11:39:21.970Z,979.174
2018-11-22T11:39:38.652Z,979.135
2018-11-22T11:40:01.064Z,979.141
2018-11-22T11:40:17.795Z,979.128
2018-11-22T11:40:34.472Z,979.099
2018-11-22T11:40:51.127Z,979.072
2018-11-22T11:41:07.830Z,979.068
2018-11-22T11:41:24.516Z,979.143
2018-11-22T11:41:41.189Z,979.038
2018-11-22T11:41:57.821Z,979.079
2018-11-22T11:42:14.530Z,979.075
2018-11-22T11:42:31.242Z,979.12
2018-11-22T11:42:47.907Z,979.091
2018-11-22T11:43:04.590Z,979.096
2018-11-22T11:43:21.248Z,979.092
2018-11-22T11:43:37.914Z,979.089
2018-11-22T11:43:54.604Z,979.037
2018-11-22T11:44:11.252Z,979.028
2018-11-22T11:44:27.930Z,979.104
2018-11-22T11:44:44.594Z,979.029
2018-11-22T11:45:01.250Z,979.083
2018-11-22T11:45:17.891Z,979.031
2018-11-22T11:45:34.578Z,979.04
2018-11-22T11:45:51.235Z,979.01
2018-11-22T11:46:07.901Z,979.042
2018-11-22T11:46:24.558Z,979.06
2018-11-22T11:46:41.254Z,978.967
2018-11-22T11:46:57.905Z,978.999
2018-11-22T11:47:14.643Z,978.982
2018-11-22T11:47:31.299Z,979.031
2018-11-22T11:47:47.979Z,978.983
2018-11-22T11:48:04.636Z,978.997
2018-11-22T11:48:21.369Z,979.028
2018-11-22T11:48:38.036Z,978.998
2018-11-22T11:48:54.675Z,978.999
2018-11-22T11:49:11.375Z,978.995
2018-11-22T11:49:28.049Z,979
2018-11-22T11:49:44.698Z,978.992
2018-11-22T11:50:01.332Z,978.987
2018-11-22T11:50:18.625Z,979.01
2018-11-22T11:50:35.402Z,978.994
2018-11-22T11:50:52.051Z,978.991
2018-11-22T11:51:08.746Z,978.947
2018-11-22T11:51:25.465Z,978.978
2018-11-22T11:51:42.245Z,979.013
2018-11-22T11:51:58.995Z,978.978
2018-11-22T11:52:15.641Z,979.014
2018-11-22T11:52:32.310Z,978.971
2018-11-22T11:52:49.007Z,978.946
2018-11-22T11:53:05.655Z,978.984
2018-11-22T11:53:42.038Z,978.954
2018-11-22T11:53:47.750Z,978.942
2018-11-22T11:54:04.489Z,978.97
2018-11-22T11:54:21.229Z,978.935
2018-11-22T11:54:37.922Z,978.936
2018-11-22T11:54:54.715Z,978.94
2018-11-22T11:55:11.382Z,978.949
2018-11-22T11:55:28.043Z,978.949
2018-11-22T11:55:44.708Z,978.946
2018-11-22T11:56:01.362Z,978.942
2018-11-22T11:56:18.050Z,978.933
2018-11-22T11:56:34.733Z,978.933
2018-11-22T11:56:51.400Z,978.956
2018-11-22T11:57:08.095Z,978.926
2018-11-22T11:57:24.775Z,978.899
2018-11-22T11:57:41.444Z,978.949
2018-11-22T11:57:58.160Z,978.945
2018-11-22T11:58:14.796Z,978.945
2018-11-22T11:58:31.458Z,978.997
2018-11-22T11:58:48.138Z,978.936
2018-11-22T11:59:04.849Z,978.879
2018-11-22T11:59:21.500Z,978.937
2018-11-22T11:59:38.213Z,978.932
2018-11-22T11:59:54.871Z,978.962
2018-11-22T12:00:11.715Z,978.906
2018-11-22T12:00:28.412Z,978.933
2018-11-22T12:00:45.138Z,978.872
2018-11-22T12:01:01.861Z,978.915
2018-11-22T12:01:18.547Z,978.925
2018-11-22T12:01:35.281Z,978.938
2018-11-22T12:01:51.996Z,978.938
2018-11-22T12:02:08.634Z,978.885
2018-11-22T12:02:31.658Z,978.916
2018-11-22T12:02:48.357Z,978.916
2018-11-22T12:03:05.027Z,978.846
2018-11-22T12:03:21.706Z,978.907
2018-11-22T12:03:38.390Z,978.88
2018-11-22T12:03:55.044Z,978.911
2018-11-22T12:04:11.711Z,978.861
2018-11-22T12:04:28.380Z,978.895
2018-11-22T12:04:45.083Z,978.91
2018-11-22T12:05:01.759Z,978.896
2018-11-22T12:05:18.407Z,978.903
2018-11-22T12:05:35.087Z,978.868
2018-11-22T12:05:51.777Z,978.841
2018-11-22T12:06:08.483Z,978.862
2018-11-22T12:06:25.139Z,978.875
2018-11-22T12:06:41.820Z,978.874
2018-11-22T12:06:58.478Z,978.865
2018-11-22T12:07:15.172Z,978.907
2018-11-22T12:07:31.899Z,978.881
2018-11-22T12:07:48.559Z,978.884
2018-11-22T12:08:05.224Z,978.884
2018-11-22T12:08:21.919Z,978.793
2018-11-22T12:08:38.605Z,978.769
2018-11-22T12:08:55.345Z,978.835
2018-11-22T12:09:12.023Z,978.84
2018-11-22T12:09:28.679Z,978.831
2018-11-22T12:09:45.365Z,978.893
2018-11-22T12:10:02.142Z,978.861
2018-11-22T12:10:18.844Z,978.848
2018-11-22T12:10:35.500Z,978.904
2018-11-22T12:10:52.198Z,978.839
2018-11-22T12:11:08.846Z,978.879
2018-11-22T12:11:25.542Z,978.861
2018-11-22T12:11:42.265Z,978.84
2018-11-22T12:11:58.965Z,978.892
2018-11-22T12:12:15.656Z,978.852
2018-11-22T12:12:32.368Z,978.848
2018-11-22T12:12:49.029Z,978.896
2018-11-22T12:13:05.703Z,978.896
2018-11-22T12:13:22.369Z,978.856
2018-11-22T12:13:39.055Z,978.87
2018-11-22T12:13:55.732Z,978.87
2018-11-22T12:14:12.389Z,978.878
2018-11-22T12:14:29.051Z,978.835
2018-11-22T12:14:45.803Z,978.87
2018-11-22T12:15:02.560Z,978.813
2018-11-22T12:15:19.219Z,978.849
2018-11-22T12:15:35.882Z,978.823
2018-11-22T12:15:52.553Z,978.876
2018-11-22T12:16:09.536Z,978.854
2018-11-22T12:16:26.391Z,978.832
2018-11-22T12:16:43.087Z,978.832
2018-11-22T12:16:59.745Z,978.863
2018-11-22T12:17:16.439Z,978.837
2018-11-22T12:17:33.153Z,978.805
2018-11-22T12:17:49.859Z,978.827
2018-11-22T12:18:07.429Z,978.844
2018-11-22T12:18:24.090Z,978.822
2018-11-22T12:18:40.777Z,978.817
2018-11-22T12:18:57.470Z,978.842
2018-11-22T12:19:14.172Z,978.832
2018-11-22T12:19:30.889Z,978.819
2018-11-22T12:19:47.627Z,978.841
2018-11-22T12:20:04.334Z,978.831
2018-11-22T12:20:21.054Z,978.808
2018-11-22T12:20:37.735Z,978.817
2018-11-22T12:20:54.457Z,978.816
2018-11-22T12:21:11.120Z,978.816
2018-11-22T12:21:27.837Z,978.844
2018-11-22T12:21:44.531Z,978.795
2018-11-22T12:22:01.277Z,978.795
2018-11-22T12:22:17.952Z,978.809
2018-11-22T12:22:34.609Z,978.826
2018-11-22T12:22:51.413Z,978.8
2018-11-22T12:23:08.074Z,978.798
2018-11-22T12:23:24.773Z,978.804
2018-11-22T12:23:41.471Z,978.8
2018-11-22T12:23:58.157Z,978.704
2018-11-22T12:24:14.907Z,978.823
2018-11-22T12:24:31.604Z,978.722